الصفحة الرئيسية
METAR-TAF:

METAR-TAF

مطار :

Tarawa, كيريباس

دائرة عرض: 01-21N, خط طول: 172-55E, ارتفاع: 2 متر

مراقبة الطقس الحالي

تاريخ ووقت الإصدار 33 دقيقة قبل الساعة 15:00UTC
ريح 4 عقدة من الشرق/الجنوب الشرقي
درجة الحرارة 26°درجة مئوية
الرطوبة 84%
ضغط 1008 hPa
الرؤية 10 كم أو أكثر
غيوم قليلة على ارتفاع 2000 قدم

METAR: NGTA 111500Z 11004KT 9999 FEW020 26/23 Q1008

زمن: 05:33 (15:33 UTC)

توقعات

تاريخ ووقت الإصدار 4ساعات و 29 دقيقة قبل الساعة 11:04UTC
التوقعات صالحة من11 الساعة 12 UTC إلى 12 الساعة 12 UTC
ريح 6 عقدة من الشرق
الرؤية 10 كم أو أكثر
غيوم متفرقة على ارتفاع 1800 قدم
غيوم مفككة على ارتفاع 10000 قدم
نظرية الاحتمالات 30% :
مؤقت
من 11 الساعة 12 UTC إلى 12 الساعة 06 UTC
الرؤية: 5000 متر
غيوم قليلة على ارتفاع 1800 قدم, مزنة ركامية.
عاصفة رعدية, مطر
نظرية الاحتمالات 40% :
مؤقت
من 12 الساعة 06 UTC إلى 12 الساعة 12 UTC
الرؤية: 5000 متر
غيوم قليلة على ارتفاع 1800 قدم, مزنة ركامية.
عاصفة رعدية, مطر

TAF: NGTA 111104Z 1112/1212 10006KT 9999 SCT018 BKN100 PROB30 TEMPO 1112/1206 5000 TSRA FEW018CB PROB40 TEMPO 1206/1212 5000 TSRA FEW018CB

أرصاد الطقس والتوقعات من أكثر من 4000 مطار (تقارير الطقس للمطار METAR والتنبؤ بالطقس بالمطارTAF).

المحطات المتاحة هي النقط الصفراء والحمراء على الخريطة.

حرك المؤشر فوق النقطة لمعرفة اسم المحطة.

ثم انقر لمعرفة أرصاد وتوقعات الطقس.

لتغيير الخارطة: اضغط على الأزرار الخضراء مع رمز الصليب الأسود للتكبير. على الزر الأخضر مع شرطة للتصغير، أو على الأسهم الخضراء للخرائط المجاورة.


METAR-TAF: